sensor_id;sensor_type;location;lat;lon;timestamp;P1;durP1;ratioP1;P2;durP2;ratioP2
18296;SDS011;18066;52.106;5.534;2023-06-22T00:01:15;6.97;;;6.28;;
18296;SDS011;18066;52.106;5.534;2023-06-22T00:03:42;11.02;;;7.03;;
18296;SDS011;18066;52.106;5.534;2023-06-22T00:06:09;7.60;;;6.47;;
18296;SDS011;18066;52.106;5.534;2023-06-22T00:08:36;7.85;;;6.63;;
18296;SDS011;18066;52.106;5.534;2023-06-22T00:11:02;11.02;;;8.80;;
18296;SDS011;18066;52.106;5.534;2023-06-22T00:13:31;7.57;;;6.43;;
18296;SDS011;18066;52.106;5.534;2023-06-22T00:15:57;7.32;;;6.50;;
18296;SDS011;18066;52.106;5.534;2023-06-22T00:18:24;8.52;;;6.30;;
18296;SDS011;18066;52.106;5.534;2023-06-22T00:20:53;7.82;;;6.78;;
18296;SDS011;18066;52.106;5.534;2023-06-22T00:23:22;9.68;;;7.03;;
18296;SDS011;18066;52.106;5.534;2023-06-22T00:25:49;9.30;;;7.20;;
18296;SDS011;18066;52.106;5.534;2023-06-22T00:28:16;8.80;;;6.65;;
18296;SDS011;18066;52.106;5.534;2023-06-22T00:30:44;8.00;;;6.43;;
18296;SDS011;18066;52.106;5.534;2023-06-22T00:33:12;6.82;;;6.10;;
18296;SDS011;18066;52.106;5.534;2023-06-22T00:35:39;10.88;;;6.90;;
18296;SDS011;18066;52.106;5.534;2023-06-22T00:38:07;8.40;;;6.75;;
18296;SDS011;18066;52.106;5.534;2023-06-22T00:40:33;8.90;;;7.25;;
18296;SDS011;18066;52.106;5.534;2023-06-22T00:43:00;7.57;;;6.47;;
18296;SDS011;18066;52.106;5.534;2023-06-22T00:45:27;7.60;;;6.40;;
18296;SDS011;18066;52.106;5.534;2023-06-22T00:47:56;7.97;;;6.43;;
18296;SDS011;18066;52.106;5.534;2023-06-22T00:50:24;8.40;;;5.97;;
18296;SDS011;18066;52.106;5.534;2023-06-22T00:52:53;10.48;;;6.80;;
18296;SDS011;18066;52.106;5.534;2023-06-22T00:55:23;8.57;;;7.03;;
18296;SDS011;18066;52.106;5.534;2023-06-22T00:57:51;7.40;;;6.57;;
18296;SDS011;18066;52.106;5.534;2023-06-22T01:00:20;7.72;;;6.63;;
18296;SDS011;18066;52.106;5.534;2023-06-22T01:02:49;9.10;;;6.57;;
18296;SDS011;18066;52.106;5.534;2023-06-22T01:05:18;10.20;;;6.95;;
18296;SDS011;18066;52.106;5.534;2023-06-22T01:07:50;8.77;;;6.68;;
18296;SDS011;18066;52.106;5.534;2023-06-22T01:10:27;9.23;;;6.75;;
18296;SDS011;18066;52.106;5.534;2023-06-22T01:12:58;8.77;;;6.10;;
18296;SDS011;18066;52.106;5.534;2023-06-22T01:15:31;8.60;;;6.35;;
18296;SDS011;18066;52.106;5.534;2023-06-22T01:18:01;8.48;;;7.07;;
18296;SDS011;18066;52.106;5.534;2023-06-22T01:20:32;8.27;;;6.47;;
18296;SDS011;18066;52.106;5.534;2023-06-22T01:23:05;7.28;;;5.90;;
18296;SDS011;18066;52.106;5.534;2023-06-22T01:25:38;10.07;;;6.85;;
18296;SDS011;18066;52.106;5.534;2023-06-22T01:28:30;8.00;;;6.57;;
18296;SDS011;18066;52.106;5.534;2023-06-22T01:31:08;8.30;;;6.45;;
18296;SDS011;18066;52.106;5.534;2023-06-22T01:33:39;9.13;;;6.50;;
18296;SDS011;18066;52.106;5.534;2023-06-22T01:36:08;6.43;;;5.80;;
18296;SDS011;18066;52.106;5.534;2023-06-22T01:38:36;6.07;;;5.47;;
18296;SDS011;18066;52.106;5.534;2023-06-22T01:41:04;8.77;;;6.47;;
18296;SDS011;18066;52.106;5.534;2023-06-22T01:43:32;9.40;;;6.90;;
18296;SDS011;18066;52.106;5.534;2023-06-22T01:46:00;7.80;;;6.72;;
18296;SDS011;18066;52.106;5.534;2023-06-22T01:48:28;7.75;;;5.72;;
18296;SDS011;18066;52.106;5.534;2023-06-22T01:50:55;9.40;;;6.57;;
18296;SDS011;18066;52.106;5.534;2023-06-22T01:53:22;6.72;;;6.03;;
18296;SDS011;18066;52.106;5.534;2023-06-22T01:55:50;7.50;;;6.80;;
18296;SDS011;18066;52.106;5.534;2023-06-22T01:58:16;8.00;;;7.10;;
18296;SDS011;18066;52.106;5.534;2023-06-22T02:00:47;10.60;;;6.85;;
18296;SDS011;18066;52.106;5.534;2023-06-22T02:03:18;7.50;;;6.72;;
18296;SDS011;18066;52.106;5.534;2023-06-22T02:05:48;6.88;;;6.18;;
18296;SDS011;18066;52.106;5.534;2023-06-22T02:08:17;9.73;;;6.63;;
18296;SDS011;18066;52.106;5.534;2023-06-22T02:10:47;7.65;;;6.53;;
18296;SDS011;18066;52.106;5.534;2023-06-22T02:13:15;8.73;;;6.75;;
18296;SDS011;18066;52.106;5.534;2023-06-22T02:15:42;10.75;;;7.55;;
18296;SDS011;18066;52.106;5.534;2023-06-22T02:18:11;6.97;;;6.28;;
18296;SDS011;18066;52.106;5.534;2023-06-22T02:20:38;8.40;;;6.22;;
18296;SDS011;18066;52.106;5.534;2023-06-22T02:23:06;8.00;;;7.05;;
18296;SDS011;18066;52.106;5.534;2023-06-22T02:25:33;6.88;;;6.18;;
18296;SDS011;18066;52.106;5.534;2023-06-22T02:28:00;6.78;;;6.07;;
18296;SDS011;18066;52.106;5.534;2023-06-22T02:30:28;6.45;;;4.97;;
18296;SDS011;18066;52.106;5.534;2023-06-22T02:32:55;6.68;;;5.45;;
18296;SDS011;18066;52.106;5.534;2023-06-22T02:35:26;7.15;;;5.95;;
18296;SDS011;18066;52.106;5.534;2023-06-22T02:37:56;11.35;;;7.82;;
18296;SDS011;18066;52.106;5.534;2023-06-22T02:40:23;13.35;;;7.72;;
18296;SDS011;18066;52.106;5.534;2023-06-22T02:42:50;6.03;;;4.88;;
18296;SDS011;18066;52.106;5.534;2023-06-22T02:45:17;5.65;;;5.05;;
18296;SDS011;18066;52.106;5.534;2023-06-22T02:47:43;9.48;;;5.40;;
18296;SDS011;18066;52.106;5.534;2023-06-22T02:50:10;10.52;;;7.78;;
18296;SDS011;18066;52.106;5.534;2023-06-22T02:52:39;6.70;;;5.80;;
18296;SDS011;18066;52.106;5.534;2023-06-22T02:55:06;5.47;;;4.47;;
18296;SDS011;18066;52.106;5.534;2023-06-22T02:57:33;5.30;;;4.45;;
18296;SDS011;18066;52.106;5.534;2023-06-22T03:00:01;5.45;;;4.95;;
18296;SDS011;18066;52.106;5.534;2023-06-22T03:02:38;5.80;;;5.22;;
18296;SDS011;18066;52.106;5.534;2023-06-22T03:05:05;8.63;;;6.20;;
18296;SDS011;18066;52.106;5.534;2023-06-22T03:07:40;7.57;;;5.80;;
18296;SDS011;18066;52.106;5.534;2023-06-22T03:10:07;7.38;;;6.40;;
18296;SDS011;18066;52.106;5.534;2023-06-22T03:12:35;6.85;;;6.15;;
18296;SDS011;18066;52.106;5.534;2023-06-22T03:15:03;6.03;;;5.43;;
18296;SDS011;18066;52.106;5.534;2023-06-22T03:17:31;5.82;;;5.20;;
18296;SDS011;18066;52.106;5.534;2023-06-22T03:19:57;7.55;;;5.95;;
18296;SDS011;18066;52.106;5.534;2023-06-22T03:22:24;7.03;;;6.35;;
18296;SDS011;18066;52.106;5.534;2023-06-22T03:24:52;7.32;;;6.50;;
18296;SDS011;18066;52.106;5.534;2023-06-22T03:27:19;6.55;;;5.85;;
18296;SDS011;18066;52.106;5.534;2023-06-22T03:29:46;7.53;;;5.80;;
18296;SDS011;18066;52.106;5.534;2023-06-22T03:32:13;7.88;;;5.60;;
18296;SDS011;18066;52.106;5.534;2023-06-22T03:34:40;6.45;;;5.20;;
18296;SDS011;18066;52.106;5.534;2023-06-22T03:37:11;5.82;;;4.63;;
18296;SDS011;18066;52.106;5.534;2023-06-22T03:39:39;5.32;;;4.35;;
18296;SDS011;18066;52.106;5.534;2023-06-22T03:42:07;5.32;;;4.63;;
18296;SDS011;18066;52.106;5.534;2023-06-22T03:44:34;7.13;;;4.70;;
18296;SDS011;18066;52.106;5.534;2023-06-22T03:47:01;6.32;;;5.50;;
18296;SDS011;18066;52.106;5.534;2023-06-22T03:49:28;6.60;;;5.88;;
18296;SDS011;18066;52.106;5.534;2023-06-22T03:51:55;7.10;;;5.55;;
18296;SDS011;18066;52.106;5.534;2023-06-22T03:54:22;6.65;;;5.53;;
18296;SDS011;18066;52.106;5.534;2023-06-22T03:56:48;6.07;;;5.03;;
18296;SDS011;18066;52.106;5.534;2023-06-22T03:59:17;7.13;;;5.90;;
18296;SDS011;18066;52.106;5.534;2023-06-22T04:01:43;7.47;;;6.68;;
18296;SDS011;18066;52.106;5.534;2023-06-22T04:04:11;7.85;;;6.55;;
18296;SDS011;18066;52.106;5.534;2023-06-22T04:06:38;10.38;;;6.40;;
18296;SDS011;18066;52.106;5.534;2023-06-22T04:09:05;7.93;;;6.20;;
18296;SDS011;18066;52.106;5.534;2023-06-22T04:11:32;9.00;;;7.13;;
18296;SDS011;18066;52.106;5.534;2023-06-22T04:13:59;15.77;;;6.20;;
18296;SDS011;18066;52.106;5.534;2023-06-22T04:16:27;14.82;;;7.43;;
18296;SDS011;18066;52.106;5.534;2023-06-22T04:18:54;9.10;;;6.38;;
18296;SDS011;18066;52.106;5.534;2023-06-22T04:21:21;7.13;;;5.70;;
18296;SDS011;18066;52.106;5.534;2023-06-22T04:23:48;9.30;;;6.70;;
18296;SDS011;18066;52.106;5.534;2023-06-22T04:26:15;8.57;;;6.13;;
18296;SDS011;18066;52.106;5.534;2023-06-22T04:28:41;9.90;;;6.72;;
18296;SDS011;18066;52.106;5.534;2023-06-22T04:31:15;8.23;;;6.03;;
18296;SDS011;18066;52.106;5.534;2023-06-22T04:33:43;10.15;;;6.30;;
18296;SDS011;18066;52.106;5.534;2023-06-22T04:36:10;8.02;;;6.47;;
18296;SDS011;18066;52.106;5.534;2023-06-22T04:38:38;11.30;;;7.57;;
18296;SDS011;18066;52.106;5.534;2023-06-22T04:41:05;9.35;;;6.68;;
18296;SDS011;18066;52.106;5.534;2023-06-22T04:43:34;9.52;;;7.13;;
18296;SDS011;18066;52.106;5.534;2023-06-22T04:46:01;11.52;;;7.18;;
18296;SDS011;18066;52.106;5.534;2023-06-22T04:48:29;9.07;;;7.20;;
18296;SDS011;18066;52.106;5.534;2023-06-22T04:50:59;7.38;;;6.50;;
18296;SDS011;18066;52.106;5.534;2023-06-22T04:53:28;9.50;;;7.32;;
18296;SDS011;18066;52.106;5.534;2023-06-22T04:55:55;15.00;;;8.77;;
18296;SDS011;18066;52.106;5.534;2023-06-22T04:58:22;9.30;;;7.35;;
18296;SDS011;18066;52.106;5.534;2023-06-22T05:00:52;9.55;;;7.53;;
18296;SDS011;18066;52.106;5.534;2023-06-22T05:03:21;9.80;;;8.65;;
18296;SDS011;18066;52.106;5.534;2023-06-22T05:05:51;10.55;;;8.45;;
18296;SDS011;18066;52.106;5.534;2023-06-22T05:08:20;11.13;;;8.55;;
18296;SDS011;18066;52.106;5.534;2023-06-22T05:10:51;11.52;;;10.05;;
18296;SDS011;18066;52.106;5.534;2023-06-22T05:13:18;12.75;;;9.45;;
18296;SDS011;18066;52.106;5.534;2023-06-22T05:15:46;16.40;;;10.18;;
18296;SDS011;18066;52.106;5.534;2023-06-22T05:18:13;12.40;;;10.10;;
18296;SDS011;18066;52.106;5.534;2023-06-22T05:20:40;14.05;;;10.00;;
18296;SDS011;18066;52.106;5.534;2023-06-22T05:23:07;15.23;;;10.43;;
18296;SDS011;18066;52.106;5.534;2023-06-22T05:25:35;18.92;;;10.07;;
18296;SDS011;18066;52.106;5.534;2023-06-22T05:28:02;15.63;;;11.57;;
18296;SDS011;18066;52.106;5.534;2023-06-22T05:30:36;18.30;;;12.68;;
18296;SDS011;18066;52.106;5.534;2023-06-22T05:33:03;17.05;;;13.05;;
18296;SDS011;18066;52.106;5.534;2023-06-22T05:35:30;19.08;;;12.25;;
18296;SDS011;18066;52.106;5.534;2023-06-22T05:37:56;18.38;;;14.10;;
18296;SDS011;18066;52.106;5.534;2023-06-22T05:40:23;20.75;;;15.43;;
18296;SDS011;18066;52.106;5.534;2023-06-22T05:42:51;32.42;;;23.80;;
18296;SDS011;18066;52.106;5.534;2023-06-22T05:45:18;37.85;;;27.77;;
18296;SDS011;18066;52.106;5.534;2023-06-22T05:47:45;44.30;;;30.30;;
18296;SDS011;18066;52.106;5.534;2023-06-22T05:50:12;39.33;;;28.67;;
18296;SDS011;18066;52.106;5.534;2023-06-22T05:52:38;43.40;;;28.08;;
18296;SDS011;18066;52.106;5.534;2023-06-22T05:55:05;38.63;;;30.30;;
18296;SDS011;18066;52.106;5.534;2023-06-22T05:57:33;42.50;;;29.77;;
18296;SDS011;18066;52.106;5.534;2023-06-22T06:00:01;40.90;;;29.63;;
18296;SDS011;18066;52.106;5.534;2023-06-22T06:02:31;41.97;;;29.02;;
18296;SDS011;18066;52.106;5.534;2023-06-22T06:04:58;40.03;;;29.27;;
18296;SDS011;18066;52.106;5.534;2023-06-22T06:07:27;41.20;;;30.35;;
18296;SDS011;18066;52.106;5.534;2023-06-22T06:09:54;34.22;;;26.05;;
18296;SDS011;18066;52.106;5.534;2023-06-22T06:12:21;38.13;;;28.98;;
18296;SDS011;18066;52.106;5.534;2023-06-22T06:14:48;32.67;;;25.42;;
18296;SDS011;18066;52.106;5.534;2023-06-22T06:17:17;35.00;;;25.23;;
18296;SDS011;18066;52.106;5.534;2023-06-22T06:19:44;31.60;;;24.50;;
18296;SDS011;18066;52.106;5.534;2023-06-22T06:22:11;29.65;;;22.90;;
18296;SDS011;18066;52.106;5.534;2023-06-22T06:24:38;29.30;;;24.52;;
18296;SDS011;18066;52.106;5.534;2023-06-22T06:27:04;34.63;;;23.83;;
18296;SDS011;18066;52.106;5.534;2023-06-22T06:29:31;32.10;;;24.63;;
18296;SDS011;18066;52.106;5.534;2023-06-22T06:31:58;28.90;;;23.15;;
18296;SDS011;18066;52.106;5.534;2023-06-22T06:34:26;30.92;;;23.63;;
18296;SDS011;18066;52.106;5.534;2023-06-22T06:36:53;29.15;;;23.13;;
18296;SDS011;18066;52.106;5.534;2023-06-22T06:39:20;32.60;;;22.35;;
18296;SDS011;18066;52.106;5.534;2023-06-22T06:41:47;28.48;;;21.95;;
18296;SDS011;18066;52.106;5.534;2023-06-22T06:44:14;31.02;;;23.17;;
18296;SDS011;18066;52.106;5.534;2023-06-22T17:13:48;17.48;;;15.55;;
18296;SDS011;18066;52.106;5.534;2023-06-22T17:16:16;19.52;;;16.00;;
18296;SDS011;18066;52.106;5.534;2023-06-22T17:18:45;18.80;;;15.55;;
18296;SDS011;18066;52.106;5.534;2023-06-22T17:21:20;16.80;;;15.10;;
18296;SDS011;18066;52.106;5.534;2023-06-22T17:23:47;18.27;;;15.40;;
18296;SDS011;18066;52.106;5.534;2023-06-22T17:26:15;21.17;;;15.85;;
18296;SDS011;18066;52.106;5.534;2023-06-22T17:28:45;18.92;;;15.57;;
18296;SDS011;18066;52.106;5.534;2023-06-22T17:31:14;19.02;;;16.67;;
18296;SDS011;18066;52.106;5.534;2023-06-22T17:33:41;19.67;;;16.17;;
18296;SDS011;18066;52.106;5.534;2023-06-22T17:36:11;19.90;;;16.50;;
18296;SDS011;18066;52.106;5.534;2023-06-22T17:38:39;23.02;;;18.20;;
18296;SDS011;18066;52.106;5.534;2023-06-22T17:41:06;23.95;;;18.42;;
18296;SDS011;18066;52.106;5.534;2023-06-22T17:43:42;22.38;;;18.38;;
18296;SDS011;18066;52.106;5.534;2023-06-22T17:46:10;20.20;;;17.05;;
18296;SDS011;18066;52.106;5.534;2023-06-22T17:48:39;22.15;;;19.67;;
18296;SDS011;18066;52.106;5.534;2023-06-22T17:51:09;22.52;;;20.13;;
18296;SDS011;18066;52.106;5.534;2023-06-22T17:53:40;25.05;;;20.58;;
18296;SDS011;18066;52.106;5.534;2023-06-22T17:56:13;19.70;;;17.52;;
18296;SDS011;18066;52.106;5.534;2023-06-22T17:58:46;22.33;;;19.88;;
18296;SDS011;18066;52.106;5.534;2023-06-22T18:01:16;22.60;;;20.20;;
18296;SDS011;18066;52.106;5.534;2023-06-22T18:03:54;24.67;;;20.15;;
18296;SDS011;18066;52.106;5.534;2023-06-22T18:06:22;28.65;;;21.80;;
18296;SDS011;18066;52.106;5.534;2023-06-22T18:08:53;25.52;;;20.83;;
18296;SDS011;18066;52.106;5.534;2023-06-22T18:11:25;23.20;;;20.38;;
18296;SDS011;18066;52.106;5.534;2023-06-22T18:13:57;24.30;;;20.17;;
18296;SDS011;18066;52.106;5.534;2023-06-22T18:16:29;24.00;;;20.70;;
18296;SDS011;18066;52.106;5.534;2023-06-22T18:19:02;24.70;;;19.90;;
18296;SDS011;18066;52.106;5.534;2023-06-22T18:21:30;23.50;;;19.48;;
18296;SDS011;18066;52.106;5.534;2023-06-22T18:24:00;27.40;;;19.75;;
18296;SDS011;18066;52.106;5.534;2023-06-22T18:26:27;29.90;;;19.15;;
18296;SDS011;18066;52.106;5.534;2023-06-22T18:28:57;25.80;;;19.42;;
18296;SDS011;18066;52.106;5.534;2023-06-22T18:31:25;21.63;;;17.73;;
18296;SDS011;18066;52.106;5.534;2023-06-22T18:33:52;21.67;;;17.73;;
18296;SDS011;18066;52.106;5.534;2023-06-22T18:36:25;21.38;;;16.98;;
18296;SDS011;18066;52.106;5.534;2023-06-22T18:38:54;18.98;;;15.27;;
18296;SDS011;18066;52.106;5.534;2023-06-22T18:41:25;17.42;;;14.63;;
18296;SDS011;18066;52.106;5.534;2023-06-22T18:43:59;19.42;;;16.05;;
18296;SDS011;18066;52.106;5.534;2023-06-22T18:46:30;17.38;;;14.15;;
18296;SDS011;18066;52.106;5.534;2023-06-22T18:49:02;17.95;;;13.82;;
18296;SDS011;18066;52.106;5.534;2023-06-22T18:51:54;19.67;;;12.77;;
18296;SDS011;18066;52.106;5.534;2023-06-22T18:54:24;17.17;;;12.13;;
18296;SDS011;18066;52.106;5.534;2023-06-22T18:56:58;16.20;;;10.60;;
18296;SDS011;18066;52.106;5.534;2023-06-22T18:59:47;17.00;;;10.02;;
18296;SDS011;18066;52.106;5.534;2023-06-22T19:02:33;12.48;;;9.75;;
18296;SDS011;18066;52.106;5.534;2023-06-22T19:05:07;11.05;;;8.50;;
18296;SDS011;18066;52.106;5.534;2023-06-22T19:10:27;12.88;;;8.48;;
18296;SDS011;18066;52.106;5.534;2023-06-22T19:12:57;10.65;;;8.30;;
18296;SDS011;18066;52.106;5.534;2023-06-22T19:15:43;13.20;;;8.43;;
18296;SDS011;18066;52.106;5.534;2023-06-22T19:18:14;12.07;;;9.25;;
18296;SDS011;18066;52.106;5.534;2023-06-22T19:20:42;12.80;;;10.88;;
18296;SDS011;18066;52.106;5.534;2023-06-22T19:26:06;14.02;;;10.95;;
18296;SDS011;18066;52.106;5.534;2023-06-22T19:28:34;13.55;;;10.07;;
18296;SDS011;18066;52.106;5.534;2023-06-22T19:31:10;14.98;;;11.10;;
18296;SDS011;18066;52.106;5.534;2023-06-22T19:33:38;17.67;;;11.02;;
18296;SDS011;18066;52.106;5.534;2023-06-22T19:36:06;15.75;;;12.07;;
18296;SDS011;18066;52.106;5.534;2023-06-22T19:38:33;12.48;;;10.45;;
18296;SDS011;18066;52.106;5.534;2023-06-22T19:41:01;15.38;;;11.82;;
18296;SDS011;18066;52.106;5.534;2023-06-22T19:43:29;12.45;;;10.15;;
18296;SDS011;18066;52.106;5.534;2023-06-22T19:45:56;11.82;;;10.15;;
18296;SDS011;18066;52.106;5.534;2023-06-22T19:48:25;15.77;;;10.02;;
18296;SDS011;18066;52.106;5.534;2023-06-22T19:50:53;11.13;;;9.60;;
18296;SDS011;18066;52.106;5.534;2023-06-22T19:53:21;11.23;;;8.43;;
18296;SDS011;18066;52.106;5.534;2023-06-22T19:55:48;8.75;;;7.18;;
18296;SDS011;18066;52.106;5.534;2023-06-22T19:58:18;11.02;;;7.32;;
18296;SDS011;18066;52.106;5.534;2023-06-22T20:00:46;9.77;;;6.70;;
18296;SDS011;18066;52.106;5.534;2023-06-22T20:03:21;8.80;;;6.93;;
18296;SDS011;18066;52.106;5.534;2023-06-22T20:05:51;8.98;;;5.75;;
18296;SDS011;18066;52.106;5.534;2023-06-22T20:08:19;6.70;;;6.00;;
18296;SDS011;18066;52.106;5.534;2023-06-22T20:10:47;9.57;;;5.68;;
18296;SDS011;18066;52.106;5.534;2023-06-22T20:13:14;6.93;;;4.95;;
18296;SDS011;18066;52.106;5.534;2023-06-22T20:15:46;7.95;;;4.68;;
18296;SDS011;18066;52.106;5.534;2023-06-22T20:18:14;6.07;;;4.38;;
18296;SDS011;18066;52.106;5.534;2023-06-22T20:20:42;9.05;;;4.07;;
18296;SDS011;18066;52.106;5.534;2023-06-22T20:23:10;7.10;;;4.40;;
18296;SDS011;18066;52.106;5.534;2023-06-22T20:25:40;10.00;;;4.18;;
18296;SDS011;18066;52.106;5.534;2023-06-22T20:28:08;4.57;;;4.10;;
18296;SDS011;18066;52.106;5.534;2023-06-22T20:30:37;6.38;;;3.75;;
18296;SDS011;18066;52.106;5.534;2023-06-22T20:33:14;4.38;;;3.97;;
18296;SDS011;18066;52.106;5.534;2023-06-22T20:35:42;9.02;;;3.97;;
18296;SDS011;18066;52.106;5.534;2023-06-22T20:38:10;6.90;;;4.25;;
18296;SDS011;18066;52.106;5.534;2023-06-22T20:40:38;7.43;;;4.28;;
18296;SDS011;18066;52.106;5.534;2023-06-22T20:43:05;5.57;;;3.78;;
18296;SDS011;18066;52.106;5.534;2023-06-22T20:45:32;5.85;;;3.90;;
18296;SDS011;18066;52.106;5.534;2023-06-22T20:47:59;5.82;;;3.80;;
18296;SDS011;18066;52.106;5.534;2023-06-22T20:50:27;5.10;;;4.18;;
18296;SDS011;18066;52.106;5.534;2023-06-22T20:52:56;6.63;;;4.15;;
18296;SDS011;18066;52.106;5.534;2023-06-22T20:55:23;5.28;;;4.47;;
18296;SDS011;18066;52.106;5.534;2023-06-22T20:57:50;5.03;;;4.50;;
18296;SDS011;18066;52.106;5.534;2023-06-22T21:00:17;7.50;;;4.30;;
18296;SDS011;18066;52.106;5.534;2023-06-22T21:02:45;9.18;;;4.63;;
18296;SDS011;18066;52.106;5.534;2023-06-22T21:05:11;5.88;;;4.65;;
18296;SDS011;18066;52.106;5.534;2023-06-22T21:07:40;8.80;;;4.85;;
18296;SDS011;18066;52.106;5.534;2023-06-22T21:10:07;6.10;;;4.90;;
18296;SDS011;18066;52.106;5.534;2023-06-22T21:12:34;6.63;;;4.90;;
18296;SDS011;18066;52.106;5.534;2023-06-22T21:15:01;5.22;;;4.57;;
18296;SDS011;18066;52.106;5.534;2023-06-22T21:17:29;7.28;;;5.07;;
18296;SDS011;18066;52.106;5.534;2023-06-22T21:19:56;8.60;;;4.65;;
18296;SDS011;18066;52.106;5.534;2023-06-22T21:22:23;5.47;;;4.97;;
18296;SDS011;18066;52.106;5.534;2023-06-22T21:25:03;7.75;;;5.32;;
18296;SDS011;18066;52.106;5.534;2023-06-22T21:27:32;6.63;;;5.40;;
18296;SDS011;18066;52.106;5.534;2023-06-22T21:29:59;8.95;;;5.22;;
18296;SDS011;18066;52.106;5.534;2023-06-22T21:32:26;10.35;;;5.15;;
18296;SDS011;18066;52.106;5.534;2023-06-22T21:34:53;7.95;;;5.15;;
18296;SDS011;18066;52.106;5.534;2023-06-22T21:37:20;7.20;;;4.72;;
18296;SDS011;18066;52.106;5.534;2023-06-22T21:39:48;7.72;;;4.97;;
18296;SDS011;18066;52.106;5.534;2023-06-22T21:42:17;5.57;;;4.55;;
18296;SDS011;18066;52.106;5.534;2023-06-22T21:44:44;7.20;;;4.45;;
18296;SDS011;18066;52.106;5.534;2023-06-22T21:47:11;7.57;;;5.35;;
18296;SDS011;18066;52.106;5.534;2023-06-22T21:49:40;7.30;;;5.40;;
18296;SDS011;18066;52.106;5.534;2023-06-22T21:52:07;5.78;;;5.18;;
18296;SDS011;18066;52.106;5.534;2023-06-22T21:54:33;6.75;;;4.68;;
18296;SDS011;18066;52.106;5.534;2023-06-22T21:57:00;11.25;;;5.13;;
18296;SDS011;18066;52.106;5.534;2023-06-22T21:59:29;7.45;;;5.47;;
18296;SDS011;18066;52.106;5.534;2023-06-22T22:01:56;9.70;;;6.15;;
18296;SDS011;18066;52.106;5.534;2023-06-22T22:04:23;10.45;;;6.18;;
18296;SDS011;18066;52.106;5.534;2023-06-22T22:06:50;8.35;;;5.50;;
18296;SDS011;18066;52.106;5.534;2023-06-22T22:09:19;13.93;;;5.00;;
18296;SDS011;18066;52.106;5.534;2023-06-22T22:11:46;7.53;;;5.20;;
18296;SDS011;18066;52.106;5.534;2023-06-22T22:14:13;6.97;;;5.18;;
18296;SDS011;18066;52.106;5.534;2023-06-22T22:16:43;5.95;;;4.65;;
18296;SDS011;18066;52.106;5.534;2023-06-22T22:19:13;6.32;;;5.25;;
18296;SDS011;18066;52.106;5.534;2023-06-22T22:21:40;10.30;;;5.57;;
18296;SDS011;18066;52.106;5.534;2023-06-22T22:24:07;6.38;;;5.35;;
18296;SDS011;18066;52.106;5.534;2023-06-22T22:26:34;8.18;;;5.90;;
18296;SDS011;18066;52.106;5.534;2023-06-22T22:29:01;7.47;;;6.07;;
18296;SDS011;18066;52.106;5.534;2023-06-22T22:31:28;5.90;;;5.32;;
18296;SDS011;18066;52.106;5.534;2023-06-22T22:33:57;12.23;;;6.70;;
18296;SDS011;18066;52.106;5.534;2023-06-22T22:36:24;8.70;;;6.38;;
18296;SDS011;18066;52.106;5.534;2023-06-22T22:38:51;12.85;;;6.40;;
18296;SDS011;18066;52.106;5.534;2023-06-22T22:41:17;9.93;;;6.82;;
18296;SDS011;18066;52.106;5.534;2023-06-22T22:43:45;8.95;;;6.25;;
18296;SDS011;18066;52.106;5.534;2023-06-22T22:46:12;8.27;;;5.78;;
18296;SDS011;18066;52.106;5.534;2023-06-22T22:48:39;10.40;;;6.22;;
18296;SDS011;18066;52.106;5.534;2023-06-22T22:51:07;13.65;;;6.75;;
18296;SDS011;18066;52.106;5.534;2023-06-22T22:53:34;8.70;;;6.10;;
18296;SDS011;18066;52.106;5.534;2023-06-22T22:56:01;11.52;;;7.00;;
18296;SDS011;18066;52.106;5.534;2023-06-22T22:58:28;8.77;;;6.78;;
18296;SDS011;18066;52.106;5.534;2023-06-22T23:00:55;9.13;;;6.35;;
18296;SDS011;18066;52.106;5.534;2023-06-22T23:03:24;8.18;;;6.57;;
18296;SDS011;18066;52.106;5.534;2023-06-22T23:05:51;9.48;;;7.03;;
18296;SDS011;18066;52.106;5.534;2023-06-22T23:08:19;7.78;;;6.68;;
18296;SDS011;18066;52.106;5.534;2023-06-22T23:10:46;6.53;;;5.72;;
18296;SDS011;18066;52.106;5.534;2023-06-22T23:13:13;10.38;;;7.00;;
18296;SDS011;18066;52.106;5.534;2023-06-22T23:15:41;9.50;;;7.32;;
18296;SDS011;18066;52.106;5.534;2023-06-22T23:18:08;9.98;;;6.95;;
18296;SDS011;18066;52.106;5.534;2023-06-22T23:20:35;8.90;;;6.80;;
18296;SDS011;18066;52.106;5.534;2023-06-22T23:23:02;7.90;;;6.53;;
18296;SDS011;18066;52.106;5.534;2023-06-22T23:25:30;8.57;;;6.80;;
18296;SDS011;18066;52.106;5.534;2023-06-22T23:27:59;16.00;;;7.68;;
18296;SDS011;18066;52.106;5.534;2023-06-22T23:30:26;10.65;;;7.38;;
18296;SDS011;18066;52.106;5.534;2023-06-22T23:32:53;9.02;;;6.82;;
18296;SDS011;18066;52.106;5.534;2023-06-22T23:35:21;9.85;;;7.13;;
18296;SDS011;18066;52.106;5.534;2023-06-22T23:37:48;8.88;;;6.63;;
18296;SDS011;18066;52.106;5.534;2023-06-22T23:40:17;10.73;;;6.80;;
18296;SDS011;18066;52.106;5.534;2023-06-22T23:42:46;7.63;;;6.20;;
18296;SDS011;18066;52.106;5.534;2023-06-22T23:45:14;8.98;;;6.80;;
18296;SDS011;18066;52.106;5.534;2023-06-22T23:47:42;7.82;;;6.28;;
18296;SDS011;18066;52.106;5.534;2023-06-22T23:50:09;8.27;;;5.97;;
18296;SDS011;18066;52.106;5.534;2023-06-22T23:52:37;8.13;;;5.78;;
18296;SDS011;18066;52.106;5.534;2023-06-22T23:55:04;8.00;;;6.65;;
18296;SDS011;18066;52.106;5.534;2023-06-22T23:57:32;7.68;;;6.43;;
